createdAt,value
2018-01-18T00:00:36.171Z,3.79
2018-01-18T00:02:29.532Z,3.75
2018-01-18T00:03:29.458Z,3.74
2018-01-18T00:05:22.729Z,3.81
2018-01-18T00:06:22.637Z,3.79
2018-01-18T00:08:15.906Z,3.79
2018-01-18T00:09:15.813Z,3.78
2018-01-18T00:11:09.065Z,3.81
2018-01-18T00:12:08.992Z,3.75
2018-01-18T00:14:02.372Z,3.81
2018-01-18T00:15:02.171Z,3.78
2018-01-18T00:16:55.538Z,3.78
2018-01-18T00:17:55.461Z,3.78
2018-01-18T00:19:48.731Z,3.72
2018-01-18T00:20:48.643Z,3.78
2018-01-18T00:22:41.895Z,3.76
2018-01-18T00:23:41.816Z,3.71
2018-01-18T00:25:35.088Z,3.75
2018-01-18T00:26:34.999Z,3.76
2018-01-18T00:28:28.270Z,3.71
2018-01-18T00:29:28.178Z,3.79
2018-01-18T00:31:21.538Z,3.82
2018-01-18T00:32:21.466Z,3.85
2018-01-18T00:34:14.737Z,3.82
2018-01-18T00:35:14.646Z,3.79
2018-01-18T00:37:08.896Z,3.92
2018-01-18T00:38:08.825Z,3.84
2018-01-18T00:40:02.080Z,3.75
2018-01-18T00:41:01.988Z,3.79
2018-01-18T00:42:55.270Z,3.78
2018-01-18T00:43:55.167Z,3.79
2018-01-18T00:45:48.425Z,3.76
2018-01-18T00:46:48.349Z,3.75
2018-01-18T00:48:41.620Z,3.66
2018-01-18T00:49:41.527Z,3.74
2018-01-18T00:51:34.781Z,3.79
2018-01-18T00:52:34.704Z,3.82
2018-01-18T00:54:27.975Z,3.89
2018-01-18T00:55:27.885Z,3.92
2018-01-18T00:57:21.147Z,3.93
2018-01-18T00:58:21.064Z,3.96
2018-01-18T01:00:15.554Z,3.90
2018-01-18T01:01:15.460Z,4.00
2018-01-18T01:03:08.734Z,4.08
2018-01-18T01:04:08.637Z,4.10
2018-01-18T01:06:01.889Z,4.00
2018-01-18T01:07:01.816Z,4.04
2018-01-18T01:08:55.087Z,4.00
2018-01-18T01:09:54.993Z,4.08
2018-01-18T01:11:48.248Z,4.14
2018-01-18T01:12:48.175Z,4.15
2018-01-18T01:14:41.556Z,4.18
2018-01-18T01:15:41.464Z,4.15
2018-01-18T01:17:34.716Z,4.18
2018-01-18T01:18:34.690Z,4.24
2018-01-18T01:20:27.913Z,4.28
2018-01-18T01:21:27.821Z,4.29
2018-01-18T01:23:21.089Z,4.38
2018-01-18T01:24:20.998Z,4.32
2018-01-18T01:26:14.362Z,4.32
2018-01-18T01:27:14.172Z,4.28
2018-01-18T01:29:07.557Z,4.32
2018-01-18T01:30:07.469Z,4.29
2018-01-18T01:32:00.717Z,4.32
2018-01-18T01:33:00.642Z,4.32
2018-01-18T01:34:53.914Z,4.39
2018-01-18T01:35:53.834Z,4.30
2018-01-18T01:37:47.075Z,4.33
2018-01-18T01:38:47.005Z,4.35
2018-01-18T01:40:40.271Z,4.35
2018-01-18T01:41:40.182Z,4.35
2018-01-18T01:43:33.551Z,4.48
2018-01-18T01:44:33.460Z,4.50
2018-01-18T01:46:27.824Z,4.42
2018-01-18T01:47:27.639Z,4.44
2018-01-18T01:49:20.911Z,4.40
2018-01-18T01:50:20.819Z,4.36
2018-01-18T01:52:14.075Z,4.38
2018-01-18T01:53:13.998Z,4.35
2018-01-18T01:55:07.271Z,4.35
2018-01-18T01:56:07.180Z,4.32
2018-01-18T01:58:00.435Z,4.35
2018-01-18T01:59:00.362Z,4.29
2018-01-18T02:00:53.633Z,4.38
2018-01-18T02:01:53.541Z,4.33
2018-01-18T02:03:46.813Z,4.46
2018-01-18T02:04:46.721Z,4.39
2018-01-18T02:06:39.975Z,4.38
2018-01-18T02:07:39.896Z,4.29
2018-01-18T02:09:34.162Z,4.38
2018-01-18T02:10:34.074Z,4.33
2018-01-18T02:12:27.540Z,4.38
2018-01-18T02:13:27.467Z,4.39
2018-01-18T02:15:20.737Z,4.35
2018-01-18T02:16:20.649Z,4.38
2018-01-18T02:18:13.899Z,4.39
2018-01-18T02:19:13.828Z,4.28
2018-01-18T02:21:07.211Z,4.29
2018-01-18T02:22:07.007Z,4.40
2018-01-18T02:24:00.284Z,4.38
2018-01-18T02:25:00.189Z,4.32
2018-01-18T02:26:53.541Z,4.35
2018-01-18T02:27:53.466Z,4.28
2018-01-18T02:29:46.737Z,4.32
2018-01-18T02:30:46.648Z,4.35
2018-01-18T02:32:39.899Z,4.30
2018-01-18T02:33:39.828Z,4.32
2018-01-18T02:35:33.097Z,4.32
2018-01-18T02:36:33.006Z,4.28
2018-01-18T02:38:26.281Z,4.38
2018-01-18T02:39:26.205Z,4.24
2018-01-18T02:41:19.591Z,4.36
2018-01-18T02:42:19.465Z,4.35
2018-01-18T02:44:12.735Z,4.39
2018-01-18T02:45:12.642Z,4.24
2018-01-18T02:47:05.892Z,4.20
2018-01-18T02:48:05.828Z,4.21
2018-01-18T02:49:59.084Z,4.28
2018-01-18T02:50:58.993Z,4.28
2018-01-18T02:52:52.248Z,4.28
2018-01-18T02:53:52.175Z,4.29
2018-01-18T02:55:45.555Z,4.24
2018-01-18T02:56:45.463Z,4.29
2018-01-18T02:58:38.717Z,4.33
2018-01-18T02:59:38.640Z,4.24
2018-01-18T03:01:32.909Z,4.26
2018-01-18T03:02:32.820Z,4.33
2018-01-18T03:04:26.088Z,4.33
2018-01-18T03:05:25.998Z,4.30
2018-01-18T03:07:19.250Z,4.35
2018-01-18T03:08:19.179Z,4.44
2018-01-18T03:10:12.438Z,4.42
2018-01-18T03:11:12.346Z,4.40
2018-01-18T03:13:05.618Z,4.47
2018-01-18T03:14:05.524Z,4.42
2018-01-18T03:15:58.910Z,4.42
2018-01-18T03:16:58.710Z,4.40
2018-01-18T03:18:51.963Z,4.48
2018-01-18T03:19:51.891Z,4.53
2018-01-18T03:21:45.163Z,4.53
2018-01-18T03:22:45.072Z,4.50
2018-01-18T03:24:38.343Z,4.44
2018-01-18T03:25:38.250Z,4.50
2018-01-18T03:27:31.506Z,4.50
2018-01-18T03:28:31.431Z,4.51
2018-01-18T03:30:24.694Z,4.56
2018-01-18T03:31:24.603Z,4.54
2018-01-18T03:33:17.855Z,4.60
2018-01-18T03:34:17.783Z,4.64
2018-01-18T03:36:11.052Z,4.57
2018-01-18T03:37:10.965Z,4.60
2018-01-18T03:39:04.215Z,4.64
2018-01-18T03:40:04.145Z,4.69
2018-01-18T03:41:57.416Z,4.75
2018-01-18T03:42:57.323Z,4.74
2018-01-18T03:44:50.590Z,4.74
2018-01-18T03:45:50.502Z,4.84
2018-01-18T03:47:43.754Z,4.78
2018-01-18T03:48:43.679Z,4.76
2018-01-18T03:50:36.954Z,4.76
2018-01-18T03:51:36.857Z,4.76
2018-01-18T03:53:30.117Z,4.76
2018-01-18T03:54:30.040Z,4.69
2018-01-18T03:56:23.412Z,4.66
2018-01-18T03:57:23.319Z,4.66
2018-01-18T03:59:16.574Z,4.71
2018-01-18T04:00:16.500Z,4.65
2018-01-18T04:02:09.771Z,4.65
2018-01-18T04:03:09.678Z,4.66
2018-01-18T04:05:03.060Z,4.68
2018-01-18T04:06:02.862Z,4.57
2018-01-18T04:07:56.120Z,4.65
2018-01-18T04:08:56.040Z,4.60
2018-01-18T04:10:49.413Z,4.57
2018-01-18T04:11:49.318Z,4.56
2018-01-18T04:13:43.683Z,4.56
2018-01-18T04:14:43.497Z,4.48
2018-01-18T04:16:36.773Z,4.50
2018-01-18T04:17:36.674Z,4.48
2018-01-18T04:19:29.930Z,4.40
2018-01-18T04:20:29.856Z,4.44
2018-01-18T04:22:23.126Z,4.40
2018-01-18T04:23:23.034Z,4.42
2018-01-18T04:25:16.305Z,4.32
2018-01-18T04:26:16.214Z,4.29
2018-01-18T04:28:09.467Z,4.28
2018-01-18T04:29:09.394Z,4.26
2018-01-18T04:31:02.662Z,4.15
2018-01-18T04:32:02.570Z,4.17
2018-01-18T04:33:55.823Z,4.17
2018-01-18T04:34:55.750Z,4.14
2018-01-18T04:36:49.134Z,4.08
2018-01-18T04:37:48.930Z,4.04
2018-01-18T04:39:42.182Z,4.04
2018-01-18T04:40:42.105Z,4.07
2018-01-18T04:42:35.415Z,4.02
2018-01-18T04:43:35.318Z,3.99
2018-01-18T04:45:28.593Z,4.02
2018-01-18T04:46:28.501Z,3.92
2018-01-18T04:48:21.752Z,3.92
2018-01-18T04:49:21.680Z,3.96
2018-01-18T04:51:15.062Z,3.94
2018-01-18T04:52:14.857Z,3.84
2018-01-18T04:54:08.112Z,3.89
2018-01-18T04:55:08.034Z,3.85
2018-01-18T04:57:01.409Z,3.69
2018-01-18T04:58:01.327Z,3.76
2018-01-18T04:59:54.560Z,3.86
2018-01-18T05:00:54.484Z,3.82
2018-01-18T05:02:47.755Z,3.75
2018-01-18T05:03:47.664Z,3.76
2018-01-18T05:05:40.932Z,3.78
2018-01-18T05:06:40.841Z,3.74
2018-01-18T05:08:34.095Z,3.76
2018-01-18T05:09:34.021Z,3.78
2018-01-18T05:11:27.289Z,3.72
2018-01-18T05:12:27.198Z,3.72
2018-01-18T05:14:20.448Z,3.69
2018-01-18T05:15:20.374Z,3.71
2018-01-18T05:17:13.633Z,3.67
2018-01-18T05:18:13.542Z,3.67
2018-01-18T05:20:06.784Z,3.58
2018-01-18T05:21:06.707Z,3.63
2018-01-18T05:22:59.977Z,3.54
2018-01-18T05:23:59.883Z,3.54
2018-01-18T05:25:53.266Z,3.35
2018-01-18T05:26:53.064Z,3.35
2018-01-18T05:28:46.311Z,3.39
2018-01-18T05:29:46.237Z,3.48
2018-01-18T05:31:39.496Z,3.45
2018-01-18T05:32:39.400Z,3.43
2018-01-18T05:34:32.764Z,3.40
2018-01-18T05:35:32.566Z,3.40
2018-01-18T05:37:25.832Z,3.45
2018-01-18T05:38:25.741Z,3.37
2018-01-18T05:40:18.998Z,3.43
2018-01-18T05:41:18.921Z,3.40
2018-01-18T05:43:12.188Z,3.40
2018-01-18T05:44:12.095Z,3.40
2018-01-18T05:46:05.418Z,3.39
2018-01-18T05:47:05.319Z,3.48
2018-01-18T05:48:58.571Z,3.49
2018-01-18T05:49:58.493Z,3.39
2018-01-18T05:51:51.761Z,3.43
2018-01-18T05:52:51.671Z,3.43
2018-01-18T05:54:44.910Z,3.46
2018-01-18T05:55:44.831Z,3.49
2018-01-18T05:57:38.217Z,3.48
2018-01-18T05:58:38.007Z,3.54
2018-01-18T06:00:31.255Z,3.60
2018-01-18T06:01:31.185Z,3.54
2018-01-18T06:03:24.441Z,3.56
2018-01-18T06:04:24.348Z,3.60
2018-01-18T06:06:17.728Z,3.57
2018-01-18T06:07:17.526Z,3.66
2018-01-18T06:09:10.760Z,3.72
2018-01-18T06:10:10.689Z,3.71
2018-01-18T06:12:03.958Z,3.67
2018-01-18T06:13:03.863Z,3.72
2018-01-18T06:14:57.115Z,3.74
2018-01-18T06:15:57.042Z,3.75
2018-01-18T06:17:50.311Z,3.76
2018-01-18T06:18:50.218Z,3.78
2018-01-18T06:20:43.582Z,3.84
2018-01-18T06:21:43.395Z,3.85
2018-01-18T06:23:36.659Z,3.93
2018-01-18T06:24:36.565Z,3.84
2018-01-18T06:26:29.835Z,3.92
2018-01-18T06:27:29.743Z,3.90
2018-01-18T06:29:22.992Z,3.86
2018-01-18T06:30:22.919Z,3.92
2018-01-18T06:32:16.192Z,3.89
2018-01-18T06:33:16.098Z,4.02
2018-01-18T06:35:09.389Z,3.97
2018-01-18T06:36:09.311Z,4.03
2018-01-18T06:38:02.585Z,4.00
2018-01-18T06:39:02.493Z,4.03
2018-01-18T06:40:55.854Z,4.07
2018-01-18T06:41:55.718Z,4.11
2018-01-18T06:43:48.935Z,4.07
2018-01-18T06:44:48.845Z,4.03
2018-01-18T06:46:42.229Z,4.07
2018-01-18T06:47:42.009Z,4.11
2018-01-18T06:49:35.270Z,4.20
2018-01-18T06:50:35.189Z,4.17
2018-01-18T06:52:28.447Z,4.20
2018-01-18T06:53:28.355Z,4.28
2018-01-18T06:55:21.605Z,4.33
2018-01-18T06:56:21.531Z,4.38
2018-01-18T06:58:14.790Z,4.40
2018-01-18T06:59:14.701Z,4.42
2018-01-18T07:01:07.947Z,4.51
2018-01-18T07:02:07.875Z,4.54
2018-01-18T07:04:01.157Z,4.50
2018-01-18T07:05:01.054Z,4.65
2018-01-18T07:06:54.325Z,4.78
2018-01-18T07:07:54.232Z,4.72
2018-01-18T07:09:47.475Z,4.85
2018-01-18T07:10:47.402Z,4.94
2018-01-18T07:12:40.671Z,5.06
2018-01-18T07:13:40.577Z,5.10
2018-01-18T07:15:33.830Z,5.15
2018-01-18T07:16:33.758Z,5.20
2018-01-18T07:18:27.138Z,5.36
2018-01-18T07:19:26.924Z,5.41
2018-01-18T07:21:20.290Z,5.52
2018-01-18T07:22:20.103Z,5.62
2018-01-18T07:24:13.443Z,5.73
2018-01-18T07:25:13.323Z,5.72
2018-01-18T07:27:06.589Z,5.81
2018-01-18T07:28:06.498Z,5.77
2018-01-18T07:29:59.862Z,5.82
2018-01-18T07:30:59.667Z,5.87
2018-01-18T07:32:52.937Z,6.13
2018-01-18T07:33:52.847Z,6.21
2018-01-18T07:35:46.098Z,6.36
2018-01-18T07:36:46.025Z,6.40
2018-01-18T07:38:39.290Z,6.54
2018-01-18T07:39:39.199Z,6.62
2018-01-18T07:41:32.439Z,6.60
2018-01-18T07:42:32.365Z,6.65
2018-01-18T07:44:25.753Z,6.61
2018-01-18T07:45:25.545Z,6.67
2018-01-18T07:47:18.819Z,6.68
2018-01-18T07:48:18.730Z,6.76
2018-01-18T07:50:11.976Z,6.68
2018-01-18T07:51:11.900Z,6.72
2018-01-18T07:53:05.173Z,6.73
2018-01-18T07:54:05.078Z,6.79
2018-01-18T07:55:58.392Z,6.82
2018-01-18T07:56:58.320Z,6.88
2018-01-18T07:58:51.586Z,6.76
2018-01-18T07:59:51.492Z,6.79
2018-01-18T08:01:44.736Z,6.86
2018-01-18T08:02:44.664Z,6.76
2018-01-18T08:04:38.050Z,6.79
2018-01-18T08:05:37.846Z,6.94
2018-01-18T08:07:31.230Z,7.03
2018-01-18T08:08:31.018Z,7.12
2018-01-18T08:10:24.262Z,7.08
2018-01-18T08:11:24.192Z,7.29
2018-01-18T08:13:17.458Z,7.44
2018-01-18T08:14:17.367Z,7.49
2018-01-18T08:16:10.614Z,7.56
2018-01-18T08:17:10.546Z,7.58
2018-01-18T08:19:03.805Z,7.67
2018-01-18T08:20:03.711Z,7.77
2018-01-18T08:21:56.955Z,7.74
2018-01-18T08:22:56.883Z,7.98
2018-01-18T08:24:50.149Z,8.07
2018-01-18T08:25:50.058Z,7.96
2018-01-18T08:27:43.322Z,8.06
2018-01-18T08:28:43.229Z,8.16
2018-01-18T08:30:36.469Z,8.34
2018-01-18T08:31:36.404Z,8.35
2018-01-18T08:33:29.668Z,8.44
2018-01-18T08:34:29.581Z,8.39
2018-01-18T08:36:22.825Z,8.40
2018-01-18T08:37:22.753Z,8.31
2018-01-18T08:39:16.017Z,8.42
2018-01-18T08:40:15.925Z,8.57
2018-01-18T08:42:09.171Z,8.92
2018-01-18T08:43:09.099Z,8.86
2018-01-18T08:45:02.410Z,8.87
2018-01-18T08:46:02.323Z,8.72
2018-01-18T08:47:55.584Z,8.69
2018-01-18T08:48:55.497Z,8.76
2018-01-18T08:50:48.749Z,8.67
2018-01-18T08:51:48.676Z,8.61
2018-01-18T08:53:41.939Z,8.58
2018-01-18T08:54:41.850Z,8.57
2018-01-18T08:56:35.213Z,8.42
2018-01-18T08:57:35.026Z,8.40
2018-01-18T08:59:28.413Z,8.39
2018-01-18T09:00:28.203Z,8.43
2018-01-18T09:02:21.453Z,8.57
2018-01-18T09:03:21.384Z,8.57
2018-01-18T09:05:14.647Z,8.62
2018-01-18T09:06:14.557Z,8.77
2018-01-18T09:08:07.822Z,8.76
2018-01-18T09:09:07.730Z,8.67
2018-01-18T09:11:00.984Z,8.65
2018-01-18T09:12:00.912Z,8.53
2018-01-18T09:13:54.297Z,8.65
2018-01-18T09:14:54.087Z,8.67
2018-01-18T09:16:47.334Z,8.72
2018-01-18T09:17:47.263Z,8.77
2018-01-18T09:19:40.654Z,8.74
2018-01-18T09:20:40.444Z,8.68
2018-01-18T09:22:33.686Z,8.69
2018-01-18T09:23:33.614Z,8.98
2018-01-18T09:25:26.880Z,9.09
2018-01-18T09:26:26.791Z,9.19
2018-01-18T09:28:20.072Z,9.05
2018-01-18T09:29:19.983Z,9.03
2018-01-18T09:31:13.349Z,9.01
2018-01-18T09:32:13.158Z,9.00
2018-01-18T09:34:06.531Z,9.00
2018-01-18T09:35:06.330Z,9.03
2018-01-18T09:36:59.641Z,9.11
2018-01-18T09:37:59.519Z,9.08
2018-01-18T09:39:52.903Z,9.11
2018-01-18T09:40:52.698Z,9.24
2018-01-18T09:42:46.066Z,9.48
2018-01-18T09:43:45.873Z,9.53
2018-01-18T09:45:39.145Z,9.63
2018-01-18T09:46:39.069Z,9.53
2018-01-18T09:48:32.415Z,9.48
2018-01-18T09:49:32.323Z,9.70
2018-01-18T09:51:25.569Z,9.53
2018-01-18T09:52:25.513Z,9.53
2018-01-18T09:54:18.765Z,9.35
2018-01-18T09:55:18.680Z,9.37
2018-01-18T09:57:12.272Z,9.04
2018-01-18T09:58:11.857Z,8.92
2018-01-18T10:00:05.244Z,8.76
2018-01-18T10:01:05.034Z,8.64
2018-01-18T10:02:58.394Z,8.71
2018-01-18T10:03:58.343Z,8.57
2018-01-18T10:05:51.601Z,8.57
2018-01-18T10:06:51.501Z,8.62
2018-01-18T10:08:44.770Z,8.53
2018-01-18T10:09:44.681Z,8.53
2018-01-18T10:11:37.931Z,8.49
2018-01-18T10:12:37.857Z,8.46
2018-01-18T10:14:31.127Z,8.39
2018-01-18T10:15:31.035Z,8.46
2018-01-18T10:17:24.392Z,8.49
2018-01-18T10:18:24.324Z,8.46
2018-01-18T10:20:17.590Z,8.43
2018-01-18T10:21:17.508Z,8.43
2018-01-18T10:23:10.748Z,8.28
2018-01-18T10:24:10.675Z,8.35
2018-01-18T10:26:03.941Z,8.25
2018-01-18T10:27:03.851Z,8.28
2018-01-18T10:28:57.124Z,8.14
2018-01-18T10:29:57.061Z,8.14
2018-01-18T10:31:50.402Z,8.09
2018-01-18T10:32:50.335Z,8.04
2018-01-18T10:34:43.710Z,8.04
2018-01-18T10:35:43.521Z,8.07
2018-01-18T10:37:36.758Z,7.95
2018-01-18T10:38:36.695Z,7.82
2018-01-18T10:40:29.941Z,7.71
2018-01-18T10:41:29.851Z,7.58
2018-01-18T10:43:23.108Z,7.33
2018-01-18T10:44:23.035Z,7.21
2018-01-18T10:46:16.409Z,7.08
2018-01-18T10:47:16.327Z,7.03
2018-01-18T10:49:09.603Z,6.73
2018-01-18T10:50:09.500Z,6.72
2018-01-18T10:52:02.741Z,6.68
2018-01-18T10:53:02.671Z,6.60
2018-01-18T10:54:55.934Z,6.64
2018-01-18T10:55:55.842Z,6.60
2018-01-18T10:57:49.098Z,6.58
2018-01-18T10:58:49.027Z,6.55
2018-01-18T11:00:42.292Z,6.60
2018-01-18T11:01:42.198Z,6.61
2018-01-18T11:03:35.442Z,6.57
2018-01-18T11:04:35.368Z,6.60
2018-01-18T11:06:28.634Z,6.47
2018-01-18T11:07:28.585Z,6.39
2018-01-18T11:09:21.804Z,6.52
2018-01-18T11:10:21.713Z,6.52
2018-01-18T11:12:14.961Z,6.42
2018-01-18T11:13:14.887Z,6.42
2018-01-18T11:15:08.153Z,6.40
2018-01-18T11:16:08.060Z,6.42
2018-01-18T11:18:01.303Z,6.39
2018-01-18T11:19:01.229Z,6.39
2018-01-18T11:20:54.609Z,6.42
2018-01-18T11:21:54.401Z,6.43
2018-01-18T11:23:47.645Z,6.49
2018-01-18T11:24:47.574Z,6.40
2018-01-18T11:26:40.850Z,6.46
2018-01-18T11:27:40.752Z,6.42
2018-01-18T11:29:34.131Z,6.39
2018-01-18T11:30:33.924Z,6.39
2018-01-18T11:32:27.167Z,6.43
2018-01-18T11:33:27.094Z,6.42
2018-01-18T11:35:20.411Z,6.51
2018-01-18T11:36:20.318Z,6.54
2018-01-18T11:38:13.562Z,6.55
2018-01-18T11:39:13.490Z,6.67
2018-01-18T11:41:06.766Z,6.68
2018-01-18T11:42:06.670Z,6.68
2018-01-18T11:43:59.916Z,6.65
2018-01-18T11:44:59.841Z,6.72
2018-01-18T11:46:53.223Z,6.72
2018-01-18T11:47:53.018Z,6.70
2018-01-18T11:49:46.398Z,6.73
2018-01-18T11:50:46.186Z,6.61
2018-01-18T11:52:39.431Z,6.65
2018-01-18T11:53:39.390Z,6.60
2018-01-18T11:55:32.623Z,6.61
2018-01-18T11:56:32.532Z,6.67
2018-01-18T11:58:25.775Z,6.58
2018-01-18T11:59:25.703Z,6.64
2018-01-18T12:01:19.591Z,6.49
2018-01-18T12:02:18.886Z,6.52
2018-01-18T12:04:12.259Z,6.61
2018-01-18T12:05:12.055Z,6.51
2018-01-18T12:07:05.321Z,6.49
2018-01-18T12:08:05.235Z,6.47
2018-01-18T12:09:58.496Z,6.46
2018-01-18T12:10:58.408Z,6.37
2018-01-18T12:12:51.770Z,6.37
2018-01-18T12:13:51.590Z,6.40
2018-01-18T12:15:44.856Z,6.46
2018-01-18T12:16:44.761Z,6.40
2018-01-18T12:18:38.007Z,6.31
2018-01-18T12:19:37.930Z,6.39
2018-01-18T12:21:31.195Z,6.34
2018-01-18T12:22:31.104Z,6.31
2018-01-18T12:24:24.468Z,6.36
2018-01-18T12:25:24.327Z,6.44
2018-01-18T12:27:18.719Z,6.29
2018-01-18T12:28:18.360Z,6.26
2018-01-18T12:30:11.626Z,6.17
2018-01-18T12:31:11.540Z,6.17
2018-01-18T12:33:04.789Z,6.20
2018-01-18T12:34:04.717Z,6.24
2018-01-18T12:35:57.978Z,6.28
2018-01-18T12:36:57.886Z,6.31
2018-01-18T12:38:51.131Z,6.39
2018-01-18T12:39:51.109Z,6.37
2018-01-18T12:41:44.441Z,6.26
2018-01-18T12:42:44.332Z,6.31
2018-01-18T12:44:37.561Z,6.26
2018-01-18T12:45:37.488Z,6.34
2018-01-18T12:47:30.753Z,6.28
2018-01-18T12:48:30.661Z,6.29
2018-01-18T12:50:23.926Z,6.33
2018-01-18T12:51:23.832Z,6.33
2018-01-18T12:53:17.104Z,6.29
2018-01-18T12:54:17.037Z,6.34
2018-01-18T12:56:10.421Z,6.25
2018-01-18T12:57:10.176Z,6.29
2018-01-18T12:59:03.419Z,6.26
2018-01-18T13:00:03.347Z,6.29
2018-01-18T13:01:56.609Z,6.26
2018-01-18T13:02:56.526Z,6.18
2018-01-18T13:04:49.766Z,6.03
2018-01-18T13:05:49.700Z,6.00
2018-01-18T13:07:42.958Z,5.84
2018-01-18T13:08:42.869Z,5.82
2018-01-18T13:10:36.259Z,5.92
2018-01-18T13:11:36.039Z,5.84
2018-01-18T13:13:29.283Z,5.84
2018-01-18T13:14:29.210Z,5.69
2018-01-18T13:16:22.514Z,5.72
2018-01-18T13:17:22.423Z,5.82
2018-01-18T13:19:15.669Z,5.70
2018-01-18T13:20:15.595Z,5.70
2018-01-18T13:22:08.979Z,5.78
2018-01-18T13:23:08.768Z,5.89
2018-01-18T13:25:02.129Z,6.02
2018-01-18T13:26:01.935Z,5.98
2018-01-18T13:27:55.195Z,6.13
2018-01-18T13:28:55.105Z,6.15
2018-01-18T13:30:48.490Z,6.14
2018-01-18T13:31:48.316Z,6.29
2018-01-18T13:33:41.563Z,6.49
2018-01-18T13:34:41.489Z,6.46
2018-01-18T13:36:34.751Z,6.40
2018-01-18T13:37:34.664Z,6.39
2018-01-18T13:39:27.918Z,6.28
2018-01-18T13:40:27.837Z,6.24
2018-01-18T13:42:21.103Z,6.18
2018-01-18T13:43:21.013Z,6.15
2018-01-18T13:45:14.385Z,6.33
2018-01-18T13:46:14.185Z,6.28
2018-01-18T13:48:07.564Z,6.42
2018-01-18T13:49:07.355Z,6.28
2018-01-18T13:51:00.619Z,6.17
2018-01-18T13:52:00.526Z,6.03
2018-01-18T13:53:53.769Z,5.63
2018-01-18T13:54:53.697Z,5.63
2018-01-18T13:56:46.983Z,5.49
2018-01-18T13:57:46.888Z,5.41
2018-01-18T13:59:40.135Z,5.45
2018-01-18T14:00:40.065Z,5.46
2018-01-18T14:02:33.448Z,5.42
2018-01-18T14:03:33.234Z,5.48
2018-01-18T14:05:26.477Z,5.52
2018-01-18T14:06:26.403Z,5.60
2018-01-18T14:08:19.702Z,5.55
2018-01-18T14:09:19.613Z,5.55
2018-01-18T14:11:12.877Z,5.57
2018-01-18T14:12:12.785Z,5.57
2018-01-18T14:14:06.155Z,5.63
2018-01-18T14:15:05.983Z,5.52
2018-01-18T14:16:59.348Z,5.66
2018-01-18T14:17:59.135Z,5.62
2018-01-18T14:19:52.391Z,5.75
2018-01-18T14:20:52.323Z,5.70
2018-01-18T14:22:45.582Z,5.72
2018-01-18T14:23:45.492Z,5.82
2018-01-18T14:25:38.858Z,5.92
2018-01-18T14:26:38.658Z,5.84
2018-01-18T14:28:31.924Z,5.82
2018-01-18T14:29:31.833Z,5.95
2018-01-18T14:31:25.095Z,5.95
2018-01-18T14:32:25.006Z,6.02
2018-01-18T14:34:18.246Z,6.00
2018-01-18T14:35:18.172Z,5.99
2018-01-18T14:37:11.437Z,5.81
2018-01-18T14:38:11.346Z,5.84
2018-01-18T14:40:04.599Z,5.82
2018-01-18T14:41:04.518Z,5.81
2018-01-18T14:42:57.783Z,5.81
2018-01-18T14:43:57.692Z,5.70
2018-01-18T14:45:51.065Z,5.70
2018-01-18T14:46:50.866Z,5.66
2018-01-18T14:48:44.129Z,5.77
2018-01-18T14:49:44.036Z,5.63
2018-01-18T14:51:37.294Z,5.67
2018-01-18T14:52:37.205Z,5.66
2018-01-18T14:54:30.451Z,5.52
2018-01-18T14:55:30.377Z,5.48
2018-01-18T14:57:23.638Z,5.51
2018-01-18T14:58:23.551Z,5.55
2018-01-18T15:00:16.910Z,5.42
2018-01-18T15:01:16.719Z,5.52
2018-01-18T15:03:10.007Z,5.46
2018-01-18T15:04:09.894Z,5.49
2018-01-18T15:06:03.130Z,5.54
2018-01-18T15:07:03.056Z,5.46
2018-01-18T15:08:56.408Z,5.60
2018-01-18T15:09:56.316Z,5.54
2018-01-18T15:11:49.718Z,5.54
2018-01-18T15:12:49.496Z,5.51
2018-01-18T15:14:42.732Z,5.46
2018-01-18T15:15:42.656Z,5.36
2018-01-18T15:17:35.921Z,5.27
2018-01-18T15:18:35.855Z,5.31
2018-01-18T15:20:29.084Z,5.20
2018-01-18T15:21:28.997Z,5.20
2018-01-18T15:23:22.382Z,5.13
2018-01-18T15:24:22.168Z,5.16
2018-01-18T15:26:15.412Z,5.18
2018-01-18T15:27:15.336Z,5.16
2018-01-18T15:29:08.594Z,5.18
2018-01-18T15:30:08.507Z,5.16
2018-01-18T15:32:01.766Z,5.12
2018-01-18T15:33:01.673Z,5.16
2018-01-18T15:34:54.927Z,5.18
2018-01-18T15:35:54.855Z,5.18
2018-01-18T15:37:48.126Z,5.10
2018-01-18T15:38:48.036Z,5.06
2018-01-18T15:40:41.404Z,5.10
2018-01-18T15:41:41.208Z,5.12
2018-01-18T15:43:34.589Z,5.09
2018-01-18T15:44:34.378Z,5.06
2018-01-18T15:46:27.739Z,5.15
2018-01-18T15:47:27.545Z,5.10
2018-01-18T15:49:20.829Z,5.03
2018-01-18T15:50:20.739Z,5.13
2018-01-18T15:52:14.121Z,5.16
2018-01-18T15:53:13.908Z,5.10
2018-01-18T15:55:07.149Z,5.13
2018-01-18T15:56:07.099Z,5.13
2018-01-18T15:58:00.411Z,5.18
2018-01-18T15:59:00.319Z,5.20
2018-01-18T16:00:53.563Z,5.27
2018-01-18T16:01:53.493Z,5.30
2018-01-18T16:03:46.754Z,5.28
2018-01-18T16:04:46.667Z,5.41
2018-01-18T16:06:40.058Z,5.30
2018-01-18T16:07:39.835Z,5.37
2018-01-18T16:09:33.100Z,5.33
2018-01-18T16:10:33.011Z,5.33
2018-01-18T16:12:26.900Z,5.31
2018-01-18T16:13:26.191Z,5.44
2018-01-18T16:15:19.469Z,5.39
2018-01-18T16:16:19.395Z,5.48
2018-01-18T16:18:12.797Z,5.44
2018-01-18T16:19:12.561Z,5.48
2018-01-18T16:21:05.818Z,5.39
2018-01-18T16:22:05.741Z,5.44
2018-01-18T16:23:59.009Z,5.42
2018-01-18T16:24:58.915Z,5.48
2018-01-18T16:26:52.277Z,5.46
2018-01-18T16:27:52.097Z,5.42
2018-01-18T16:29:45.372Z,5.41
2018-01-18T16:30:45.276Z,5.30
2018-01-18T16:32:39.511Z,5.23
2018-01-18T16:33:39.442Z,5.28
2018-01-18T16:35:32.704Z,5.13
2018-01-18T16:36:32.612Z,5.10
2018-01-18T16:38:25.980Z,5.12
2018-01-18T16:39:25.786Z,5.10
2018-01-18T16:41:19.166Z,4.98
2018-01-18T16:42:18.950Z,4.97
2018-01-18T16:44:12.212Z,5.03
2018-01-18T16:45:12.118Z,4.98
2018-01-18T16:47:05.358Z,4.97
2018-01-18T16:48:05.288Z,4.97
2018-01-18T16:49:58.561Z,5.03
2018-01-18T16:50:58.466Z,4.94
2018-01-18T16:52:51.708Z,4.97
2018-01-18T16:53:51.635Z,4.88
2018-01-18T16:55:44.913Z,4.87
2018-01-18T16:56:44.819Z,4.85
2018-01-18T16:58:38.190Z,4.72
2018-01-18T16:59:38.008Z,4.75
2018-01-18T17:01:31.260Z,4.71
2018-01-18T17:02:31.200Z,4.65
2018-01-18T17:04:24.441Z,4.71
2018-01-18T17:05:24.337Z,4.72
2018-01-18T17:07:17.701Z,4.71
2018-01-18T17:08:17.516Z,4.69
2018-01-18T17:10:10.775Z,4.74
2018-01-18T17:11:10.688Z,4.76
2018-01-18T17:13:03.941Z,4.79
2018-01-18T17:14:03.857Z,4.65
2018-01-18T17:15:57.237Z,4.65
2018-01-18T17:16:57.023Z,4.69
2018-01-18T17:18:50.394Z,4.72
2018-01-18T17:19:50.320Z,4.71
2018-01-18T17:21:43.580Z,4.68
2018-01-18T17:22:43.491Z,4.71
2018-01-18T17:24:36.750Z,4.74
2018-01-18T17:25:36.709Z,4.72
2018-01-18T17:27:29.919Z,4.72
2018-01-18T17:28:29.824Z,4.75
2018-01-18T17:30:23.165Z,4.72
2018-01-18T17:31:23.044Z,4.75
2018-01-18T17:33:16.252Z,4.75
2018-01-18T17:34:16.218Z,4.76
2018-01-18T17:36:09.474Z,4.75
2018-01-18T17:37:10.031Z,4.79
2018-01-18T17:39:02.604Z,4.72
2018-01-18T17:40:02.532Z,4.66
2018-01-18T17:41:55.934Z,4.74
2018-01-18T17:42:55.760Z,4.65
2018-01-18T17:44:49.134Z,4.64
2018-01-18T17:45:48.942Z,4.61
2018-01-18T17:47:42.252Z,4.51
2018-01-18T17:48:42.067Z,4.50
2018-01-18T17:50:35.462Z,4.64
2018-01-18T17:51:35.241Z,4.60
2018-01-18T17:53:28.604Z,4.54
2018-01-18T17:54:28.413Z,4.60
2018-01-18T17:56:21.672Z,4.54
2018-01-18T17:57:21.580Z,4.50
2018-01-18T17:59:14.824Z,4.46
2018-01-18T18:00:14.752Z,4.46
2018-01-18T18:02:08.020Z,4.46
2018-01-18T18:03:07.922Z,4.33
2018-01-18T18:05:01.162Z,4.30
2018-01-18T18:06:01.089Z,4.28
2018-01-18T18:07:55.359Z,4.32
2018-01-18T18:08:55.270Z,4.24
2018-01-18T18:10:48.512Z,4.26
2018-01-18T18:11:48.441Z,4.24
2018-01-18T18:13:41.704Z,4.14
2018-01-18T18:14:41.664Z,4.18
2018-01-18T18:16:34.974Z,4.20
2018-01-18T18:17:34.776Z,4.20
2018-01-18T18:19:28.041Z,4.20
2018-01-18T18:20:27.951Z,4.14
2018-01-18T18:22:21.215Z,3.99
2018-01-18T18:23:21.121Z,4.04
2018-01-18T18:25:14.442Z,4.02
2018-01-18T18:26:14.346Z,4.03
2018-01-18T18:28:07.595Z,4.04
2018-01-18T18:29:07.504Z,4.02
2018-01-18T18:31:00.744Z,4.00
2018-01-18T18:32:00.669Z,4.07
2018-01-18T18:33:53.935Z,4.12
2018-01-18T18:34:53.849Z,4.17
2018-01-18T18:36:47.084Z,4.22
2018-01-18T18:37:47.014Z,4.20
2018-01-18T18:39:40.272Z,4.15
2018-01-18T18:40:40.183Z,4.24
2018-01-18T18:42:33.425Z,4.22
2018-01-18T18:43:33.393Z,4.21
2018-01-18T18:45:26.659Z,4.30
2018-01-18T18:46:26.624Z,4.24
2018-01-18T18:48:19.878Z,4.38
2018-01-18T18:49:19.734Z,4.32
2018-01-18T18:51:12.976Z,4.36
2018-01-18T18:52:12.904Z,4.35
2018-01-18T18:54:06.174Z,4.36
2018-01-18T18:55:06.085Z,4.39
2018-01-18T18:56:59.331Z,4.35
2018-01-18T18:57:59.255Z,4.38
2018-01-18T18:59:52.517Z,4.33
2018-01-18T19:00:52.423Z,4.39
2018-01-18T19:02:45.666Z,4.35
2018-01-18T19:03:45.594Z,4.30
2018-01-18T19:05:38.370Z,4.26
2018-01-18T19:06:38.278Z,4.15
2018-01-18T19:08:31.700Z,4.26
2018-01-18T19:09:31.450Z,4.22
2018-01-18T19:11:24.711Z,4.20
2018-01-18T19:12:24.646Z,4.18